Thursday, May 24, 2018, 5:51 AM EDT
Back to Local

KBGR, Bangor Int'l Airport

Location: Bangor, ME, United States Lat: 44.8
Local Time: 5:51 AM EDT ( 9:51 GMT) Lon: -68.817
Time Zone: US/Eastern Elev: 193 ft

Show me the last for .
Show Decoded

2018-05-24 04:53 METAR KBGR 240853Z 00000KT 10SM BCFG FEW020 FEW180 04/03 A3005 RMK AO2 SLP176
                 T00390033 53011 =
2018-05-24 03:53 METAR KBGR 240753Z 00000KT 10SM SCT250 06/06 A3004 RMK AO2 SLP170 T00610056 =
2018-05-24 02:53 METAR KBGR 240653Z 00000KT 10SM SCT250 07/05 A3002 RMK AO2 SLP166 T00720050 =
2018-05-24 01:53 METAR KBGR 240553Z 07003KT 10SM SCT130 BKN250 08/06 A3002 RMK AO2 SLP164
                 T00830056 10139 20083 50006 =
2018-05-24 00:53 METAR KBGR 240453Z 04003KT 10SM FEW120 BKN250 10/05 A3002 RMK AO2 SLP163
                 T01000050 402330100 =
2018-05-23 23:53 METAR KBGR 240353Z 04004KT 10SM SCT250 10/05 A3001 RMK AO2 SLP160 T01000050 =
2018-05-23 22:53 METAR KBGR 240253Z 04007KT 10SM SCT250 11/05 A3000 RMK AO2 SLP158 T01060050
                 50011 =
2018-05-23 21:53 METAR KBGR 240153Z COR 03008KT 10SM BKN250 12/04 A3000 RMK AO2 SLP157 T01220039
                 =
2018-05-23 20:53 METAR KBGR 240053Z 35006KT 10SM BKN250 13/03 A2999 RMK AO2 SLP153 T01280028 =
2018-05-23 19:53 METAR KBGR 232353Z 36012KT 10SM FEW040 BKN250 14/04 A2997 RMK AO2 SLP146 60032
                 T01390044 10194 20139 53029 =
2018-05-23 18:53 METAR KBGR 232253Z 36013KT 10SM FEW040 BKN250 16/07 A2993 RMK AO2 SLP136
                 T01610072 =
2018-05-23 17:53 METAR KBGR 232153Z 36011KT 10SM BKN044 BKN250 17/09 A2990 RMK AO2 SLP124
                 T01720089 =
2018-05-23 16:53 METAR KBGR 232053Z 01011KT 10SM BKN048 BKN060 BKN085 17/08 A2988 RMK AO2 SLP117
                 60032 T01670083 52033 =
2018-05-23 15:53 METAR KBGR 231953Z 03012KT 10SM FEW055 BKN070 18/09 A2984 RMK AO2 SLP103
                 T01830094 =
2018-05-23 14:53 METAR KBGR 231853Z 01016G22KT 10SM BKN044CB BKN065 18/11 A2982 RMK AO2 PK WND
                 01026/1838 LTG DSNT SE AND S RAE34 SLP097 CB S-SE MOV SE P0032 T01830111 =
2018-05-23 13:53 METAR KBGR 231753Z 36010KT 8SM RA SCT048CB BKN070 OVC085 20/13 A2978 RMK AO2 LTG
                 DSNT W RAB28 SLP083 CB OHD MOV SE P0005 60005 T02000128 10233 20139 56012 =
2018-05-23 12:53 METAR KBGR 231653Z VRB04KT 10SM SCT043 BKN050 22/12 A2978 RMK AO2 SLP083
                 T02220117 =
2018-05-23 11:53 METAR KBGR 231553Z 26008KT 10SM BKN037 22/12 A2980 RMK AO2 SLP089 T02170117 =
2018-05-23 10:53 METAR KBGR 231453Z COR 30008KT 10SM SCT029 BKN036 19/11 A2982 RMK AO2 SLP095
                 T01940111 58006 =
2018-05-23 09:53 METAR KBGR 231353Z 35007KT 10SM BKN022 19/12 A2982 RMK AO2 SLP097 T01890117 =
2018-05-23 09:43 METAR KBGR 231343Z 32008KT 280V350 10SM BKN022 18/12 A2983 RMK AO2 T01830122 =
2018-05-23 08:53 METAR KBGR 231253Z 00000KT 10SM SCT013 17/12 A2984 RMK AO2 SLP101 T01720122 =
2018-05-23 07:53 METAR KBGR 231153Z 00000KT 10SM SCT013 BKN040 14/11 A2984 RMK AO2 SLP102 60000
                 70001 T01390106 10139 20117 58001 =
2018-05-23 07:38 METAR KBGR 231138Z 20004KT 10SM FEW016 SCT040 13/11 A2984 RMK AO2 T01330106 =
2018-05-23 06:53 METAR KBGR 231053Z 20004KT 10SM BKN016 BKN040 12/10 A2984 RMK AO2 SLP103
                 T01220100 =
2018-05-23 05:53 METAR KBGR 230953Z 20004KT 10SM FEW019 FEW026 BKN039 12/10 A2984 RMK AO2 SLP102
                 T01170100 =

Support USWX by starting your Amazon purchase here.